sensor_id;sensor_type;location;lat;lon;timestamp;P1;durP1;ratioP1;P2;durP2;ratioP2
10007;SDS011;5043;41.766;26.204;2023-05-07T00:01:41;5.57;;;3.25;;
10007;SDS011;5043;41.766;26.204;2023-05-07T00:04:06;5.18;;;2.97;;
10007;SDS011;5043;41.766;26.204;2023-05-07T00:06:32;5.35;;;2.72;;
10007;SDS011;5043;41.766;26.204;2023-05-07T00:08:58;4.32;;;2.55;;
10007;SDS011;5043;41.766;26.204;2023-05-07T00:11:25;4.88;;;2.65;;
10007;SDS011;5043;41.766;26.204;2023-05-07T00:13:51;8.23;;;2.80;;
10007;SDS011;5043;41.766;26.204;2023-05-07T00:16:17;2.47;;;2.13;;
10007;SDS011;5043;41.766;26.204;2023-05-07T00:18:42;4.43;;;2.50;;
10007;SDS011;5043;41.766;26.204;2023-05-07T00:21:08;4.53;;;2.45;;
10007;SDS011;5043;41.766;26.204;2023-05-07T00:23:33;2.85;;;2.38;;
10007;SDS011;5043;41.766;26.204;2023-05-07T00:25:59;5.30;;;2.65;;
10007;SDS011;5043;41.766;26.204;2023-05-07T00:28:24;4.43;;;2.28;;
10007;SDS011;5043;41.766;26.204;2023-05-07T00:30:49;2.75;;;2.20;;
10007;SDS011;5043;41.766;26.204;2023-05-07T00:33:15;2.78;;;2.30;;
10007;SDS011;5043;41.766;26.204;2023-05-07T00:35:41;5.78;;;2.42;;
10007;SDS011;5043;41.766;26.204;2023-05-07T00:38:07;3.42;;;2.30;;
10007;SDS011;5043;41.766;26.204;2023-05-07T00:40:33;4.03;;;2.42;;
10007;SDS011;5043;41.766;26.204;2023-05-07T00:42:58;7.05;;;3.03;;
10007;SDS011;5043;41.766;26.204;2023-05-07T00:45:28;4.88;;;2.50;;
10007;SDS011;5043;41.766;26.204;2023-05-07T00:47:57;4.03;;;2.30;;
10007;SDS011;5043;41.766;26.204;2023-05-07T00:50:25;7.00;;;2.75;;
10007;SDS011;5043;41.766;26.204;2023-05-07T00:52:51;6.97;;;2.50;;
10007;SDS011;5043;41.766;26.204;2023-05-07T00:55:17;4.95;;;2.20;;
10007;SDS011;5043;41.766;26.204;2023-05-07T00:57:43;4.57;;;2.80;;
10007;SDS011;5043;41.766;26.204;2023-05-07T01:00:09;8.55;;;2.25;;
10007;SDS011;5043;41.766;26.204;2023-05-07T01:02:37;8.95;;;3.03;;
10007;SDS011;5043;41.766;26.204;2023-05-07T01:05:03;3.35;;;2.55;;
10007;SDS011;5043;41.766;26.204;2023-05-07T01:07:31;4.70;;;2.95;;
10007;SDS011;5043;41.766;26.204;2023-05-07T01:09:57;8.35;;;3.20;;
10007;SDS011;5043;41.766;26.204;2023-05-07T01:12:23;3.90;;;2.85;;
10007;SDS011;5043;41.766;26.204;2023-05-07T01:14:50;5.40;;;3.05;;
10007;SDS011;5043;41.766;26.204;2023-05-07T01:17:16;4.43;;;3.13;;
10007;SDS011;5043;41.766;26.204;2023-05-07T01:19:42;3.78;;;2.90;;
10007;SDS011;5043;41.766;26.204;2023-05-07T01:22:08;3.67;;;2.70;;
10007;SDS011;5043;41.766;26.204;2023-05-07T01:24:36;4.05;;;3.10;;
10007;SDS011;5043;41.766;26.204;2023-05-07T01:27:02;7.53;;;3.03;;
10007;SDS011;5043;41.766;26.204;2023-05-07T01:29:28;7.35;;;3.53;;
10007;SDS011;5043;41.766;26.204;2023-05-07T01:31:54;3.20;;;2.90;;
10007;SDS011;5043;41.766;26.204;2023-05-07T01:34:24;3.50;;;3.20;;
10007;SDS011;5043;41.766;26.204;2023-05-07T01:36:51;5.30;;;3.75;;
10007;SDS011;5043;41.766;26.204;2023-05-07T01:39:18;5.78;;;3.72;;
10007;SDS011;5043;41.766;26.204;2023-05-07T01:41:44;5.72;;;3.35;;
10007;SDS011;5043;41.766;26.204;2023-05-07T01:44:10;4.28;;;3.42;;
10007;SDS011;5043;41.766;26.204;2023-05-07T01:46:38;5.63;;;3.47;;
10007;SDS011;5043;41.766;26.204;2023-05-07T01:49:04;5.45;;;3.33;;
10007;SDS011;5043;41.766;26.204;2023-05-07T01:51:29;5.55;;;3.30;;
10007;SDS011;5043;41.766;26.204;2023-05-07T01:53:56;8.43;;;3.58;;
10007;SDS011;5043;41.766;26.204;2023-05-07T01:56:23;5.53;;;3.70;;
10007;SDS011;5043;41.766;26.204;2023-05-07T01:58:50;3.67;;;3.15;;
10007;SDS011;5043;41.766;26.204;2023-05-07T02:01:16;3.58;;;3.28;;
10007;SDS011;5043;41.766;26.204;2023-05-07T02:03:43;7.63;;;3.42;;
10007;SDS011;5043;41.766;26.204;2023-05-07T02:06:08;5.80;;;3.15;;
10007;SDS011;5043;41.766;26.204;2023-05-07T02:08:34;4.70;;;3.58;;
10007;SDS011;5043;41.766;26.204;2023-05-07T02:10:59;7.15;;;4.00;;
10007;SDS011;5043;41.766;26.204;2023-05-07T02:13:26;7.50;;;4.07;;
10007;SDS011;5043;41.766;26.204;2023-05-07T02:15:54;8.90;;;3.70;;
10007;SDS011;5043;41.766;26.204;2023-05-07T02:18:19;7.28;;;4.32;;
10007;SDS011;5043;41.766;26.204;2023-05-07T02:20:45;11.77;;;4.32;;
10007;SDS011;5043;41.766;26.204;2023-05-07T02:23:10;9.68;;;4.13;;
10007;SDS011;5043;41.766;26.204;2023-05-07T02:25:36;5.13;;;3.88;;
10007;SDS011;5043;41.766;26.204;2023-05-07T02:28:01;5.60;;;4.50;;
10007;SDS011;5043;41.766;26.204;2023-05-07T02:30:26;4.68;;;4.03;;
10007;SDS011;5043;41.766;26.204;2023-05-07T02:32:52;5.53;;;4.82;;
10007;SDS011;5043;41.766;26.204;2023-05-07T02:35:17;6.97;;;4.47;;
10007;SDS011;5043;41.766;26.204;2023-05-07T02:37:43;10.57;;;5.25;;
10007;SDS011;5043;41.766;26.204;2023-05-07T02:40:08;9.93;;;4.72;;
10007;SDS011;5043;41.766;26.204;2023-05-07T02:42:34;7.25;;;4.78;;
10007;SDS011;5043;41.766;26.204;2023-05-07T02:45:00;5.93;;;4.65;;
10007;SDS011;5043;41.766;26.204;2023-05-07T02:47:25;6.22;;;4.47;;
10007;SDS011;5043;41.766;26.204;2023-05-07T02:49:56;8.82;;;5.45;;
10007;SDS011;5043;41.766;26.204;2023-05-07T02:52:21;6.32;;;5.07;;
10007;SDS011;5043;41.766;26.204;2023-05-07T02:54:47;9.50;;;5.57;;
10007;SDS011;5043;41.766;26.204;2023-05-07T02:57:12;8.82;;;5.53;;
10007;SDS011;5043;41.766;26.204;2023-05-07T02:59:38;8.43;;;5.93;;
10007;SDS011;5043;41.766;26.204;2023-05-07T03:02:03;7.72;;;6.05;;
10007;SDS011;5043;41.766;26.204;2023-05-07T03:04:29;9.98;;;5.57;;
10007;SDS011;5043;41.766;26.204;2023-05-07T03:06:54;8.95;;;6.10;;
10007;SDS011;5043;41.766;26.204;2023-05-07T03:09:20;9.85;;;6.90;;
10007;SDS011;5043;41.766;26.204;2023-05-07T03:11:45;9.15;;;6.80;;
10007;SDS011;5043;41.766;26.204;2023-05-07T03:14:11;7.82;;;6.45;;
10007;SDS011;5043;41.766;26.204;2023-05-07T03:16:37;9.02;;;6.45;;
10007;SDS011;5043;41.766;26.204;2023-05-07T03:19:03;9.02;;;6.30;;
10007;SDS011;5043;41.766;26.204;2023-05-07T03:21:28;13.30;;;6.72;;
10007;SDS011;5043;41.766;26.204;2023-05-07T03:23:53;9.75;;;7.05;;
10007;SDS011;5043;41.766;26.204;2023-05-07T03:26:19;14.95;;;7.25;;
10007;SDS011;5043;41.766;26.204;2023-05-07T03:28:45;7.95;;;6.50;;
10007;SDS011;5043;41.766;26.204;2023-05-07T03:31:10;9.55;;;6.43;;
10007;SDS011;5043;41.766;26.204;2023-05-07T03:33:38;8.75;;;6.93;;
10007;SDS011;5043;41.766;26.204;2023-05-07T03:36:14;7.88;;;6.30;;
10007;SDS011;5043;41.766;26.204;2023-05-07T03:38:39;7.93;;;6.60;;
10007;SDS011;5043;41.766;26.204;2023-05-07T03:41:04;8.02;;;6.72;;
10007;SDS011;5043;41.766;26.204;2023-05-07T03:43:30;9.00;;;7.05;;
10007;SDS011;5043;41.766;26.204;2023-05-07T03:45:56;12.73;;;7.20;;
10007;SDS011;5043;41.766;26.204;2023-05-07T03:48:21;9.45;;;6.88;;
10007;SDS011;5043;41.766;26.204;2023-05-07T03:50:46;11.85;;;7.53;;
10007;SDS011;5043;41.766;26.204;2023-05-07T03:53:12;11.88;;;7.22;;
10007;SDS011;5043;41.766;26.204;2023-05-07T03:55:38;10.35;;;6.70;;
10007;SDS011;5043;41.766;26.204;2023-05-07T03:58:03;12.00;;;7.68;;
10007;SDS011;5043;41.766;26.204;2023-05-07T04:00:29;9.10;;;6.80;;
10007;SDS011;5043;41.766;26.204;2023-05-07T04:02:58;9.68;;;6.63;;
10007;SDS011;5043;41.766;26.204;2023-05-07T04:05:24;7.65;;;6.88;;
10007;SDS011;5043;41.766;26.204;2023-05-07T04:07:49;9.00;;;6.90;;
10007;SDS011;5043;41.766;26.204;2023-05-07T04:10:15;8.93;;;6.90;;
10007;SDS011;5043;41.766;26.204;2023-05-07T04:12:40;12.40;;;7.32;;
10007;SDS011;5043;41.766;26.204;2023-05-07T04:15:06;7.80;;;6.10;;
10007;SDS011;5043;41.766;26.204;2023-05-07T04:17:32;7.72;;;6.72;;
10007;SDS011;5043;41.766;26.204;2023-05-07T04:19:57;9.98;;;6.88;;
10007;SDS011;5043;41.766;26.204;2023-05-07T04:22:22;8.45;;;6.55;;
10007;SDS011;5043;41.766;26.204;2023-05-07T04:24:48;8.73;;;6.75;;
10007;SDS011;5043;41.766;26.204;2023-05-07T04:27:13;8.93;;;6.75;;
10007;SDS011;5043;41.766;26.204;2023-05-07T04:29:39;7.90;;;6.60;;
10007;SDS011;5043;41.766;26.204;2023-05-07T04:32:07;6.60;;;6.00;;
10007;SDS011;5043;41.766;26.204;2023-05-07T04:34:33;10.65;;;6.40;;
10007;SDS011;5043;41.766;26.204;2023-05-07T04:36:59;7.57;;;6.18;;
10007;SDS011;5043;41.766;26.204;2023-05-07T04:39:25;7.53;;;6.50;;
10007;SDS011;5043;41.766;26.204;2023-05-07T04:41:50;7.32;;;5.97;;
10007;SDS011;5043;41.766;26.204;2023-05-07T04:44:16;7.68;;;6.78;;
10007;SDS011;5043;41.766;26.204;2023-05-07T04:46:41;8.63;;;6.40;;
10007;SDS011;5043;41.766;26.204;2023-05-07T04:49:07;11.82;;;6.43;;
10007;SDS011;5043;41.766;26.204;2023-05-07T04:51:32;9.35;;;6.13;;
10007;SDS011;5043;41.766;26.204;2023-05-07T04:53:58;9.95;;;6.88;;
10007;SDS011;5043;41.766;26.204;2023-05-07T04:56:23;8.32;;;6.20;;
10007;SDS011;5043;41.766;26.204;2023-05-07T04:58:48;9.18;;;6.65;;
10007;SDS011;5043;41.766;26.204;2023-05-07T05:01:14;7.13;;;5.95;;
10007;SDS011;5043;41.766;26.204;2023-05-07T05:03:39;7.68;;;5.78;;
10007;SDS011;5043;41.766;26.204;2023-05-07T05:06:05;10.60;;;6.15;;
10007;SDS011;5043;41.766;26.204;2023-05-07T05:08:31;7.13;;;5.28;;
10007;SDS011;5043;41.766;26.204;2023-05-07T05:10:56;11.45;;;5.55;;
10007;SDS011;5043;41.766;26.204;2023-05-07T05:13:22;8.40;;;5.25;;
10007;SDS011;5043;41.766;26.204;2023-05-07T05:15:47;6.05;;;4.88;;
10007;SDS011;5043;41.766;26.204;2023-05-07T05:18:13;5.60;;;5.10;;
10007;SDS011;5043;41.766;26.204;2023-05-07T05:20:38;9.73;;;5.63;;
10007;SDS011;5043;41.766;26.204;2023-05-07T05:23:04;9.35;;;5.15;;
10007;SDS011;5043;41.766;26.204;2023-05-07T05:25:29;13.80;;;5.93;;
10007;SDS011;5043;41.766;26.204;2023-05-07T05:27:55;14.95;;;5.38;;
10007;SDS011;5043;41.766;26.204;2023-05-07T05:30:20;5.88;;;4.82;;
10007;SDS011;5043;41.766;26.204;2023-05-07T05:32:45;6.75;;;4.95;;
10007;SDS011;5043;41.766;26.204;2023-05-07T05:35:11;8.38;;;4.55;;
10007;SDS011;5043;41.766;26.204;2023-05-07T05:37:36;9.18;;;5.50;;
10007;SDS011;5043;41.766;26.204;2023-05-07T05:40:02;8.55;;;5.18;;
10007;SDS011;5043;41.766;26.204;2023-05-07T05:42:27;8.40;;;4.78;;
10007;SDS011;5043;41.766;26.204;2023-05-07T05:44:52;15.80;;;5.25;;
10007;SDS011;5043;41.766;26.204;2023-05-07T05:47:18;9.40;;;5.40;;
10007;SDS011;5043;41.766;26.204;2023-05-07T05:49:43;7.05;;;4.15;;
10007;SDS011;5043;41.766;26.204;2023-05-07T05:52:09;8.15;;;5.10;;
10007;SDS011;5043;41.766;26.204;2023-05-07T05:54:36;14.27;;;5.43;;
10007;SDS011;5043;41.766;26.204;2023-05-07T05:57:05;4.65;;;4.10;;
10007;SDS011;5043;41.766;26.204;2023-05-07T05:59:31;6.68;;;4.13;;
10007;SDS011;5043;41.766;26.204;2023-05-07T06:01:56;5.50;;;4.68;;
10007;SDS011;5043;41.766;26.204;2023-05-07T06:04:22;7.10;;;4.55;;
10007;SDS011;5043;41.766;26.204;2023-05-07T06:06:47;4.68;;;3.83;;
10007;SDS011;5043;41.766;26.204;2023-05-07T06:09:13;5.80;;;3.65;;
10007;SDS011;5043;41.766;26.204;2023-05-07T06:11:38;7.35;;;4.45;;
10007;SDS011;5043;41.766;26.204;2023-05-07T06:14:05;6.43;;;4.07;;
10007;SDS011;5043;41.766;26.204;2023-05-07T06:16:31;6.22;;;4.28;;
10007;SDS011;5043;41.766;26.204;2023-05-07T06:18:57;8.50;;;4.15;;
10007;SDS011;5043;41.766;26.204;2023-05-07T06:21:22;8.07;;;4.25;;
10007;SDS011;5043;41.766;26.204;2023-05-07T06:23:48;5.20;;;3.75;;
10007;SDS011;5043;41.766;26.204;2023-05-07T06:26:13;7.53;;;3.65;;
10007;SDS011;5043;41.766;26.204;2023-05-07T06:28:39;6.38;;;3.45;;
10007;SDS011;5043;41.766;26.204;2023-05-07T06:31:18;3.83;;;3.47;;
10007;SDS011;5043;41.766;26.204;2023-05-07T06:33:47;6.72;;;2.90;;
10007;SDS011;5043;41.766;26.204;2023-05-07T06:36:13;4.55;;;3.05;;
10007;SDS011;5043;41.766;26.204;2023-05-07T06:38:39;7.18;;;2.80;;
10007;SDS011;5043;41.766;26.204;2023-05-07T06:41:05;6.70;;;2.75;;
10007;SDS011;5043;41.766;26.204;2023-05-07T06:43:31;3.13;;;2.83;;
10007;SDS011;5043;41.766;26.204;2023-05-07T06:45:57;4.40;;;2.60;;
10007;SDS011;5043;41.766;26.204;2023-05-07T06:48:23;7.55;;;2.35;;
10007;SDS011;5043;41.766;26.204;2023-05-07T06:50:48;7.40;;;2.70;;
10007;SDS011;5043;41.766;26.204;2023-05-07T06:53:13;2.55;;;2.35;;
10007;SDS011;5043;41.766;26.204;2023-05-07T06:55:39;5.05;;;2.55;;
10007;SDS011;5043;41.766;26.204;2023-05-07T06:58:04;4.40;;;2.30;;
10007;SDS011;5043;41.766;26.204;2023-05-07T07:00:30;3.25;;;2.33;;
10007;SDS011;5043;41.766;26.204;2023-05-07T07:02:56;4.90;;;2.58;;
10007;SDS011;5043;41.766;26.204;2023-05-07T07:05:22;3.25;;;2.42;;
10007;SDS011;5043;41.766;26.204;2023-05-07T07:07:47;4.13;;;2.20;;
10007;SDS011;5043;41.766;26.204;2023-05-07T07:10:18;3.47;;;2.10;;
10007;SDS011;5043;41.766;26.204;2023-05-07T07:12:44;4.13;;;2.47;;
10007;SDS011;5043;41.766;26.204;2023-05-07T07:15:10;4.57;;;2.17;;
10007;SDS011;5043;41.766;26.204;2023-05-07T07:17:36;5.95;;;2.80;;
10007;SDS011;5043;41.766;26.204;2023-05-07T07:20:01;4.50;;;2.40;;
10007;SDS011;5043;41.766;26.204;2023-05-07T07:22:27;4.95;;;2.45;;
10007;SDS011;5043;41.766;26.204;2023-05-07T07:24:53;3.28;;;2.40;;
10007;SDS011;5043;41.766;26.204;2023-05-07T07:27:19;3.33;;;2.08;;
10007;SDS011;5043;41.766;26.204;2023-05-07T07:29:44;5.70;;;1.88;;
10007;SDS011;5043;41.766;26.204;2023-05-07T07:32:10;2.95;;;2.35;;
10007;SDS011;5043;41.766;26.204;2023-05-07T07:34:35;4.15;;;2.40;;
10007;SDS011;5043;41.766;26.204;2023-05-07T07:37:01;6.00;;;2.40;;
10007;SDS011;5043;41.766;26.204;2023-05-07T07:39:30;5.35;;;2.42;;
10007;SDS011;5043;41.766;26.204;2023-05-07T07:41:56;5.88;;;2.15;;
10007;SDS011;5043;41.766;26.204;2023-05-07T07:44:21;5.65;;;2.28;;
10007;SDS011;5043;41.766;26.204;2023-05-07T07:46:47;3.70;;;2.00;;
10007;SDS011;5043;41.766;26.204;2023-05-07T07:49:12;4.35;;;2.83;;
10007;SDS011;5043;41.766;26.204;2023-05-07T07:51:38;3.60;;;1.85;;
10007;SDS011;5043;41.766;26.204;2023-05-07T07:54:03;6.63;;;2.20;;
10007;SDS011;5043;41.766;26.204;2023-05-07T07:56:29;2.60;;;1.83;;
10007;SDS011;5043;41.766;26.204;2023-05-07T07:58:54;2.53;;;1.70;;
10007;SDS011;5043;41.766;26.204;2023-05-07T08:01:20;3.55;;;2.00;;
10007;SDS011;5043;41.766;26.204;2023-05-07T08:03:45;1.25;;;1.15;;
10007;SDS011;5043;41.766;26.204;2023-05-07T08:06:10;3.55;;;1.70;;
10007;SDS011;5043;41.766;26.204;2023-05-07T08:08:36;5.45;;;1.52;;
10007;SDS011;5043;41.766;26.204;2023-05-07T08:11:01;3.28;;;1.70;;
10007;SDS011;5043;41.766;26.204;2023-05-07T08:13:27;5.53;;;2.05;;
10007;SDS011;5043;41.766;26.204;2023-05-07T08:15:53;3.35;;;1.95;;
10007;SDS011;5043;41.766;26.204;2023-05-07T08:18:18;5.53;;;1.80;;
10007;SDS011;5043;41.766;26.204;2023-05-07T08:20:44;5.22;;;1.70;;
10007;SDS011;5043;41.766;26.204;2023-05-07T08:23:09;1.63;;;1.52;;
10007;SDS011;5043;41.766;26.204;2023-05-07T08:25:35;1.85;;;1.75;;
10007;SDS011;5043;41.766;26.204;2023-05-07T08:28:02;2.53;;;1.67;;
10007;SDS011;5043;41.766;26.204;2023-05-07T08:30:28;8.93;;;1.80;;
10007;SDS011;5043;41.766;26.204;2023-05-07T08:32:54;4.78;;;2.03;;
10007;SDS011;5043;41.766;26.204;2023-05-07T08:35:19;9.43;;;2.35;;
10007;SDS011;5043;41.766;26.204;2023-05-07T08:37:45;3.38;;;2.03;;
10007;SDS011;5043;41.766;26.204;2023-05-07T08:40:10;3.35;;;1.90;;
10007;SDS011;5043;41.766;26.204;2023-05-07T08:42:36;1.98;;;1.55;;
10007;SDS011;5043;41.766;26.204;2023-05-07T08:45:05;7.18;;;1.65;;
10007;SDS011;5043;41.766;26.204;2023-05-07T08:47:39;3.95;;;1.80;;
10007;SDS011;5043;41.766;26.204;2023-05-07T08:50:09;6.53;;;1.63;;
10007;SDS011;5043;41.766;26.204;2023-05-07T08:52:35;4.15;;;1.60;;
10007;SDS011;5043;41.766;26.204;2023-05-07T08:55:02;1.70;;;1.60;;
10007;SDS011;5043;41.766;26.204;2023-05-07T08:57:28;5.60;;;2.15;;
10007;SDS011;5043;41.766;26.204;2023-05-07T08:59:53;1.45;;;1.35;;
10007;SDS011;5043;41.766;26.204;2023-05-07T09:02:19;3.53;;;2.10;;
10007;SDS011;5043;41.766;26.204;2023-05-07T09:04:45;2.03;;;1.77;;
10007;SDS011;5043;41.766;26.204;2023-05-07T09:07:10;3.83;;;1.80;;
10007;SDS011;5043;41.766;26.204;2023-05-07T09:09:36;5.55;;;1.95;;
10007;SDS011;5043;41.766;26.204;2023-05-07T09:12:03;1.75;;;1.65;;
10007;SDS011;5043;41.766;26.204;2023-05-07T09:14:29;4.15;;;2.10;;
10007;SDS011;5043;41.766;26.204;2023-05-07T09:16:55;2.85;;;1.80;;
10007;SDS011;5043;41.766;26.204;2023-05-07T09:19:24;4.60;;;2.00;;
10007;SDS011;5043;41.766;26.204;2023-05-07T09:21:58;2.33;;;2.13;;
10007;SDS011;5043;41.766;26.204;2023-05-07T09:24:28;5.38;;;1.60;;
10007;SDS011;5043;41.766;26.204;2023-05-07T09:26:57;3.67;;;2.03;;
10007;SDS011;5043;41.766;26.204;2023-05-07T09:29:23;2.33;;;1.85;;
10007;SDS011;5043;41.766;26.204;2023-05-07T09:31:48;4.57;;;1.67;;
10007;SDS011;5043;41.766;26.204;2023-05-07T09:34:13;3.15;;;2.15;;
10007;SDS011;5043;41.766;26.204;2023-05-07T09:36:39;3.28;;;1.90;;
10007;SDS011;5043;41.766;26.204;2023-05-07T09:39:04;4.68;;;1.80;;
10007;SDS011;5043;41.766;26.204;2023-05-07T09:41:30;1.58;;;1.48;;
10007;SDS011;5043;41.766;26.204;2023-05-07T09:43:57;2.92;;;1.73;;
10007;SDS011;5043;41.766;26.204;2023-05-07T09:46:27;2.70;;;1.63;;
10007;SDS011;5043;41.766;26.204;2023-05-07T09:48:56;2.95;;;2.13;;
10007;SDS011;5043;41.766;26.204;2023-05-07T09:51:29;2.15;;;1.38;;
10007;SDS011;5043;41.766;26.204;2023-05-07T09:53:59;4.20;;;1.70;;
10007;SDS011;5043;41.766;26.204;2023-05-07T09:56:27;3.03;;;1.92;;
10007;SDS011;5043;41.766;26.204;2023-05-07T09:58:56;8.23;;;2.03;;
10007;SDS011;5043;41.766;26.204;2023-05-07T10:01:24;3.58;;;1.60;;
10007;SDS011;5043;41.766;26.204;2023-05-07T10:03:50;2.55;;;1.73;;
10007;SDS011;5043;41.766;26.204;2023-05-07T10:06:17;3.42;;;1.50;;
10007;SDS011;5043;41.766;26.204;2023-05-07T10:08:45;2.25;;;1.83;;
10007;SDS011;5043;41.766;26.204;2023-05-07T10:11:11;5.57;;;2.05;;
10007;SDS011;5043;41.766;26.204;2023-05-07T10:13:36;5.45;;;1.60;;
10007;SDS011;5043;41.766;26.204;2023-05-07T10:16:06;2.78;;;1.70;;
10007;SDS011;5043;41.766;26.204;2023-05-07T10:18:32;2.33;;;1.65;;
10007;SDS011;5043;41.766;26.204;2023-05-07T10:21:01;2.53;;;1.40;;
10007;SDS011;5043;41.766;26.204;2023-05-07T10:23:36;2.92;;;1.73;;
10007;SDS011;5043;41.766;26.204;2023-05-07T10:26:03;2.17;;;1.70;;
10007;SDS011;5043;41.766;26.204;2023-05-07T10:28:32;1.75;;;1.52;;
10007;SDS011;5043;41.766;26.204;2023-05-07T10:31:08;2.20;;;1.63;;
10007;SDS011;5043;41.766;26.204;2023-05-07T10:33:55;8.05;;;2.00;;
10007;SDS011;5043;41.766;26.204;2023-05-07T10:36:23;2.63;;;1.67;;
10007;SDS011;5043;41.766;26.204;2023-05-07T10:38:49;3.15;;;1.33;;
10007;SDS011;5043;41.766;26.204;2023-05-07T10:41:15;2.75;;;1.83;;
10007;SDS011;5043;41.766;26.204;2023-05-07T10:43:42;5.30;;;1.80;;
10007;SDS011;5043;41.766;26.204;2023-05-07T10:46:09;4.97;;;1.45;;
10007;SDS011;5043;41.766;26.204;2023-05-07T10:51:28;1.92;;;1.65;;
10007;SDS011;5043;41.766;26.204;2023-05-07T10:56:36;1.95;;;1.80;;
10007;SDS011;5043;41.766;26.204;2023-05-07T10:59:45;2.03;;;1.50;;
10007;SDS011;5043;41.766;26.204;2023-05-07T11:01:59;3.53;;;1.75;;
10007;SDS011;5043;41.766;26.204;2023-05-07T11:04:31;3.67;;;1.65;;
10007;SDS011;5043;41.766;26.204;2023-05-07T11:15:06;1.52;;;1.42;;
10007;SDS011;5043;41.766;26.204;2023-05-07T11:17:33;4.13;;;1.67;;
10007;SDS011;5043;41.766;26.204;2023-05-07T11:20:01;4.65;;;1.80;;
10007;SDS011;5043;41.766;26.204;2023-05-07T11:25:02;2.75;;;1.92;;
10007;SDS011;5043;41.766;26.204;2023-05-07T11:27:29;1.67;;;1.58;;
10007;SDS011;5043;41.766;26.204;2023-05-07T11:29:54;3.13;;;2.05;;
10007;SDS011;5043;41.766;26.204;2023-05-07T11:32:23;3.47;;;1.60;;
10007;SDS011;5043;41.766;26.204;2023-05-07T11:34:53;4.82;;;1.83;;
10007;SDS011;5043;41.766;26.204;2023-05-07T11:37:20;2.67;;;2.08;;
10007;SDS011;5043;41.766;26.204;2023-05-07T11:39:47;4.10;;;1.80;;
10007;SDS011;5043;41.766;26.204;2023-05-07T11:44:59;1.60;;;1.48;;
10007;SDS011;5043;41.766;26.204;2023-05-07T11:47:26;3.05;;;1.98;;
10007;SDS011;5043;41.766;26.204;2023-05-07T11:49:56;1.90;;;1.60;;
10007;SDS011;5043;41.766;26.204;2023-05-07T11:52:23;2.95;;;1.90;;
10007;SDS011;5043;41.766;26.204;2023-05-07T11:54:57;2.00;;;1.70;;
10007;SDS011;5043;41.766;26.204;2023-05-07T11:57:24;4.25;;;1.50;;
10007;SDS011;5043;41.766;26.204;2023-05-07T11:59:54;2.53;;;1.77;;
10007;SDS011;5043;41.766;26.204;2023-05-07T12:02:23;2.33;;;1.40;;
10007;SDS011;5043;41.766;26.204;2023-05-07T12:04:50;2.95;;;1.48;;
10007;SDS011;5043;41.766;26.204;2023-05-07T12:07:16;4.97;;;1.40;;
10007;SDS011;5043;41.766;26.204;2023-05-07T12:09:46;2.08;;;1.80;;
10007;SDS011;5043;41.766;26.204;2023-05-07T12:12:13;5.53;;;1.90;;
10007;SDS011;5043;41.766;26.204;2023-05-07T12:14:43;2.92;;;1.95;;
10007;SDS011;5043;41.766;26.204;2023-05-07T12:17:10;4.43;;;1.70;;
10007;SDS011;5043;41.766;26.204;2023-05-07T12:19:39;3.10;;;1.45;;
10007;SDS011;5043;41.766;26.204;2023-05-07T12:22:05;2.65;;;2.08;;
10007;SDS011;5043;41.766;26.204;2023-05-07T12:24:48;2.28;;;1.30;;
10007;SDS011;5043;41.766;26.204;2023-05-07T12:27:23;3.22;;;1.80;;
10007;SDS011;5043;41.766;26.204;2023-05-07T12:29:49;4.03;;;1.60;;
10007;SDS011;5043;41.766;26.204;2023-05-07T12:32:15;3.88;;;1.80;;
10007;SDS011;5043;41.766;26.204;2023-05-07T12:34:42;2.28;;;1.75;;
10007;SDS011;5043;41.766;26.204;2023-05-07T12:37:08;5.45;;;1.45;;
10007;SDS011;5043;41.766;26.204;2023-05-07T12:39:33;3.20;;;1.90;;
10007;SDS011;5043;41.766;26.204;2023-05-07T12:41:59;4.88;;;1.45;;
10007;SDS011;5043;41.766;26.204;2023-05-07T12:44:25;5.32;;;2.13;;
10007;SDS011;5043;41.766;26.204;2023-05-07T12:46:55;6.22;;;3.22;;
10007;SDS011;5043;41.766;26.204;2023-05-07T12:49:20;2.20;;;1.77;;
10007;SDS011;5043;41.766;26.204;2023-05-07T12:51:49;1.92;;;1.50;;
10007;SDS011;5043;41.766;26.204;2023-05-07T12:54:33;1.77;;;1.38;;
10007;SDS011;5043;41.766;26.204;2023-05-07T12:57:03;2.30;;;1.55;;
10007;SDS011;5043;41.766;26.204;2023-05-07T12:59:37;3.22;;;1.65;;
10007;SDS011;5043;41.766;26.204;2023-05-07T13:02:06;1.52;;;1.42;;
10007;SDS011;5043;41.766;26.204;2023-05-07T13:04:32;2.70;;;1.42;;
10007;SDS011;5043;41.766;26.204;2023-05-07T13:06:58;1.48;;;1.30;;
10007;SDS011;5043;41.766;26.204;2023-05-07T13:09:24;2.60;;;1.70;;
10007;SDS011;5043;41.766;26.204;2023-05-07T13:11:50;5.43;;;1.60;;
10007;SDS011;5043;41.766;26.204;2023-05-07T13:14:15;2.65;;;1.70;;
10007;SDS011;5043;41.766;26.204;2023-05-07T13:16:41;2.35;;;1.75;;
10007;SDS011;5043;41.766;26.204;2023-05-07T13:19:06;2.00;;;1.75;;
10007;SDS011;5043;41.766;26.204;2023-05-07T13:21:31;5.75;;;1.80;;
10007;SDS011;5043;41.766;26.204;2023-05-07T13:23:57;2.22;;;1.80;;
10007;SDS011;5043;41.766;26.204;2023-05-07T13:26:23;2.30;;;1.83;;
10007;SDS011;5043;41.766;26.204;2023-05-07T13:28:49;4.35;;;1.95;;
10007;SDS011;5043;41.766;26.204;2023-05-07T13:31:15;2.92;;;1.77;;
10007;SDS011;5043;41.766;26.204;2023-05-07T13:33:40;3.65;;;1.85;;
10007;SDS011;5043;41.766;26.204;2023-05-07T13:36:06;2.28;;;1.75;;
10007;SDS011;5043;41.766;26.204;2023-05-07T13:38:31;3.60;;;1.63;;
10007;SDS011;5043;41.766;26.204;2023-05-07T13:40:57;4.82;;;1.70;;
10007;SDS011;5043;41.766;26.204;2023-05-07T13:43:22;2.63;;;1.75;;
10007;SDS011;5043;41.766;26.204;2023-05-07T13:45:48;3.45;;;1.98;;
10007;SDS011;5043;41.766;26.204;2023-05-07T13:48:13;7.63;;;1.88;;
10007;SDS011;5043;41.766;26.204;2023-05-07T13:50:38;2.03;;;1.83;;
10007;SDS011;5043;41.766;26.204;2023-05-07T13:53:04;1.60;;;1.50;;
10007;SDS011;5043;41.766;26.204;2023-05-07T13:55:30;4.90;;;1.80;;
10007;SDS011;5043;41.766;26.204;2023-05-07T13:57:56;4.68;;;1.77;;
10007;SDS011;5043;41.766;26.204;2023-05-07T14:00:23;4.07;;;2.10;;
10007;SDS011;5043;41.766;26.204;2023-05-07T14:02:49;3.97;;;1.80;;
10007;SDS011;5043;41.766;26.204;2023-05-07T14:05:15;2.58;;;1.73;;
10007;SDS011;5043;41.766;26.204;2023-05-07T14:07:40;2.95;;;1.60;;
10007;SDS011;5043;41.766;26.204;2023-05-07T14:10:06;4.38;;;2.00;;
10007;SDS011;5043;41.766;26.204;2023-05-07T14:12:32;3.78;;;1.98;;
10007;SDS011;5043;41.766;26.204;2023-05-07T14:14:58;3.90;;;2.15;;
10007;SDS011;5043;41.766;26.204;2023-05-07T14:17:23;4.47;;;2.33;;
10007;SDS011;5043;41.766;26.204;2023-05-07T14:19:51;3.90;;;1.77;;
10007;SDS011;5043;41.766;26.204;2023-05-07T14:22:19;5.32;;;1.80;;
10007;SDS011;5043;41.766;26.204;2023-05-07T14:24:46;5.25;;;1.85;;
10007;SDS011;5043;41.766;26.204;2023-05-07T14:27:11;3.03;;;1.88;;
10007;SDS011;5043;41.766;26.204;2023-05-07T14:29:37;2.08;;;1.52;;
10007;SDS011;5043;41.766;26.204;2023-05-07T14:32:02;2.90;;;1.73;;
10007;SDS011;5043;41.766;26.204;2023-05-07T14:34:28;6.13;;;1.60;;
10007;SDS011;5043;41.766;26.204;2023-05-07T14:36:54;5.50;;;1.85;;
10007;SDS011;5043;41.766;26.204;2023-05-07T14:39:20;1.63;;;1.52;;
10007;SDS011;5043;41.766;26.204;2023-05-07T14:41:46;2.75;;;1.90;;
10007;SDS011;5043;41.766;26.204;2023-05-07T14:44:12;1.98;;;1.65;;
10007;SDS011;5043;41.766;26.204;2023-05-07T14:46:38;3.78;;;1.83;;
10007;SDS011;5043;41.766;26.204;2023-05-07T14:49:03;1.70;;;1.50;;
10007;SDS011;5043;41.766;26.204;2023-05-07T14:51:29;2.40;;;1.85;;
10007;SDS011;5043;41.766;26.204;2023-05-07T14:53:55;2.38;;;1.65;;
10007;SDS011;5043;41.766;26.204;2023-05-07T14:56:21;4.47;;;2.20;;
10007;SDS011;5043;41.766;26.204;2023-05-07T14:58:47;3.58;;;1.95;;
10007;SDS011;5043;41.766;26.204;2023-05-07T15:01:13;1.88;;;1.77;;
10007;SDS011;5043;41.766;26.204;2023-05-07T15:03:39;3.88;;;1.65;;